Time;durP1;ratioP1;P1;durP2;ratioP2;P2;SDS_P1;SDS_P2;PMS_P1;PMS_P2;Temp;Humidity;BMP_temperature;BMP_pressure;BME280_temperature;BME280_humidity;BME280_pressure;Samples;Min_cycle;Max_cycle;Signal;HPM_P1;HPM_P2
2023/08/04 00:00:30;;;;;;;;;;;;;;;19.32;58.55;100926.06;4830956;29;109030;-78
2023/08/04 00:02:57;;;;;;;;;;;;;;;19.30;58.64;100919.97;4835235;29;109495;-78
2023/08/04 00:05:24;;;;;;;;;;;;;;;19.24;58.57;100927.53;4849347;28;123331;-78
2023/08/04 00:07:51;;;;;;;;;;;;;;;19.22;58.58;100929.47;4833520;29;124671;-79
2023/08/04 00:10:18;;;;;;;;;;;;;;;19.20;58.58;100936.81;4833253;29;109915;-78
2023/08/04 00:12:45;;;;;;;;;;;;;;;19.17;58.60;100928.97;4851888;29;108686;-78
2023/08/04 00:15:12;;;;;;;;;;;;;;;19.15;58.55;100925.56;4844845;29;123392;-78
2023/08/04 00:17:39;;;;;;;;;;;;;;;19.12;58.65;100928.53;4848908;29;124033;-78
2023/08/04 00:20:08;;;;;;;;;;;;;;;19.09;58.71;100928.75;4837011;29;110165;-78
2023/08/04 00:22:35;;;;;;;;;;;;;;;19.06;58.75;100942.41;4849527;29;108921;-78
2023/08/04 00:25:02;;;;;;;;;;;;;;;19.06;58.80;100939.72;4831370;29;124845;-78
2023/08/04 00:27:29;;;;;;;;;;;;;;;19.04;58.72;100947.03;4834299;29;124175;-79
2023/08/04 00:29:56;;;;;;;;;;;;;;;19.03;58.78;100950.72;4832017;29;109761;-78
2023/08/04 00:32:23;;;;;;;;;;;;;;;19.01;58.66;100958.06;4835975;29;108780;-78
2023/08/04 00:34:50;;;;;;;;;;;;;;;18.99;58.74;100949.25;4829487;29;123977;-78
2023/08/04 00:37:17;;;;;;;;;;;;;;;18.98;58.60;100952.91;4840257;29;122989;-78
2023/08/04 00:39:44;;;;;;;;;;;;;;;18.95;58.70;100947.78;4834883;29;109236;-78
2023/08/04 00:42:11;;;;;;;;;;;;;;;18.92;58.66;100953.41;4836475;29;108148;-78
2023/08/04 00:44:38;;;;;;;;;;;;;;;18.90;58.69;100966.09;4828987;29;125513;-78
2023/08/04 00:47:05;;;;;;;;;;;;;;;18.88;58.82;100968.03;4834754;29;124123;-78
2023/08/04 00:49:34;;;;;;;;;;;;;;;18.85;58.75;100958.38;4848926;29;108599;-78
2023/08/04 00:52:01;;;;;;;;;;;;;;;18.82;58.80;100962.16;4843378;29;108061;-78
2023/08/04 00:54:28;;;;;;;;;;;;;;;18.80;58.66;100966.81;4863269;29;123545;-78
2023/08/04 00:56:55;;;;;;;;;;;;;;;18.78;58.68;100958.00;4840210;29;122766;-78
2023/08/04 00:59:22;;;;;;;;;;;;;;;18.75;58.71;100963.59;4833639;29;108815;-78
2023/08/04 01:01:49;;;;;;;;;;;;;;;18.72;58.68;100969.19;4837402;29;108965;-78
2023/08/04 01:04:18;;;;;;;;;;;;;;;18.69;58.86;100969.44;4834400;29;124855;-78
2023/08/04 01:06:55;;;;;;;;;;;;;;;18.67;58.92;100976.75;4830648;29;124396;-79
2023/08/04 01:09:25;;;;;;;;;;;;;;;18.64;58.92;100972.44;4837563;29;110395;-78
2023/08/04 01:12:07;;;;;;;;;;;;;;;18.63;59.06;100975.28;4855945;29;108990;-78
2023/08/04 01:14:35;;;;;;;;;;;;;;;18.60;58.90;100975.50;4835054;29;124385;-79
2023/08/04 01:17:20;;;;;;;;;;;;;;;18.58;58.96;100978.31;4840258;29;125293;-78
2023/08/04 01:19:47;;;;;;;;;;;;;;;18.59;59.08;100979.16;4829290;29;110088;-78
2023/08/04 01:22:14;;;;;;;;;;;;;;;18.59;59.06;100976.47;4839514;29;107431;-78
2023/08/04 01:24:41;;;;;;;;;;;;;;;18.59;59.13;100989.88;4853744;28;124277;-78
2023/08/04 01:27:11;;;;;;;;;;;;;;;18.59;59.03;100989.88;4833737;29;123796;-79
2023/08/04 01:29:39;;;;;;;;;;;;;;;18.61;59.21;100982.56;4839200;29;110372;-78
2023/08/04 01:32:06;;;;;;;;;;;;;;;18.63;59.19;100986.00;4855047;29;109091;-78
2023/08/04 01:34:33;;;;;;;;;;;;;;;18.65;59.13;100984.06;4841053;29;124115;-78
2023/08/04 01:37:02;;;;;;;;;;;;;;;18.66;59.26;100993.81;4836985;29;124462;-78
2023/08/04 01:39:29;;;;;;;;;;;;;;;18.66;59.18;100991.13;4846796;29;108417;-78
2023/08/04 01:41:57;;;;;;;;;;;;;;;18.67;59.08;100995.53;4838255;29;108731;-79
2023/08/04 01:44:24;;;;;;;;;;;;;;;18.68;58.98;100998.09;4854037;29;123884;-78
2023/08/04 01:46:50;;;;;;;;;;;;;;;18.70;59.27;100997.94;4838844;29;124041;-78
2023/08/04 01:49:19;;;;;;;;;;;;;;;18.72;59.29;100996.00;4832893;29;109621;-78
2023/08/04 01:51:46;;;;;;;;;;;;;;;18.72;59.14;101006.75;4826855;29;108191;-78
2023/08/04 01:54:13;;;;;;;;;;;;;;;18.73;59.04;100997.72;4834360;29;124485;-78
2023/08/04 01:56:40;;;;;;;;;;;;;;;18.74;59.07;100996.78;4831069;29;125069;-78
2023/08/04 01:59:07;;;;;;;;;;;;;;;18.75;59.24;101000.31;4835497;29;110505;-78
2023/08/04 02:01:34;;;;;;;;;;;;;;;18.76;59.25;101002.00;4836021;29;109116;-78
2023/08/04 02:04:01;;;;;;;;;;;;;;;18.75;59.12;100998.47;4828559;29;124697;-78
2023/08/04 02:06:28;;;;;;;;;;;;;;;18.75;59.18;100995.78;4836953;29;124085;-79
2023/08/04 02:08:55;;;;;;;;;;;;;;;18.75;59.22;100995.78;4853607;29;111241;-78
2023/08/04 02:11:22;;;;;;;;;;;;;;;18.74;59.14;100999.47;4835922;29;110832;-78
2023/08/04 02:13:50;;;;;;;;;;;;;;;18.74;59.25;100999.47;4831826;29;123574;-78
2023/08/04 02:16:17;;;;;;;;;;;;;;;18.73;59.29;100997.72;4837634;29;123943;-78
2023/08/04 02:18:44;;;;;;;;;;;;;;;18.74;59.15;101004.81;4853626;29;110144;-79
2023/08/04 02:21:11;;;;;;;;;;;;;;;18.75;59.32;101011.03;4839306;29;107496;-78
2023/08/04 02:23:38;;;;;;;;;;;;;;;18.75;59.29;101006.50;4823891;29;123869;-78
2023/08/04 02:26:04;;;;;;;;;;;;;;;18.75;59.35;101011.88;4825000;29;124456;-78
2023/08/04 02:28:32;;;;;;;;;;;;;;;18.76;59.14;101016.28;4831346;29;109927;-78
2023/08/04 02:30:59;;;;;;;;;;;;;;;18.77;59.11;101014.44;4834657;29;109558;-79
2023/08/04 02:33:28;;;;;;;;;;;;;;;18.77;59.15;101015.28;4852680;28;123816;-78
2023/08/04 02:36:00;;;;;;;;;;;;;;;18.77;59.12;101015.28;4827103;29;125263;-78
2023/08/04 02:38:27;;;;;;;;;;;;;;;18.76;59.14;101008.25;4838721;29;110363;-78
2023/08/04 02:40:59;;;;;;;;;;;;;;;18.75;59.03;101019.94;4838787;29;107809;-78
2023/08/04 02:43:26;;;;;;;;;;;;;;;18.75;59.08;101011.88;4828694;29;124476;-78
2023/08/04 02:45:53;;;;;;;;;;;;;;;18.74;59.15;101020.91;4832899;29;123847;-78
2023/08/04 02:48:20;;;;;;;;;;;;;;;18.73;59.30;101024.56;4846829;29;108709;-78
2023/08/04 02:50:47;;;;;;;;;;;;;;;18.74;59.22;101020.91;4830210;29;108375;-78
2023/08/04 02:53:14;;;;;;;;;;;;;;;18.74;59.12;101015.56;4836109;29;126125;-78
2023/08/04 02:55:41;;;;;;;;;;;;;;;18.74;59.29;101020.03;4826337;29;124291;-79
2023/08/04 02:58:08;;;;;;;;;;;;;;;18.73;59.28;101019.19;4832019;29;109909;-78
2023/08/04 03:00:35;;;;;;;;;;;;;;;18.73;59.12;101029.09;4838605;29;109514;-79
2023/08/04 03:03:02;;;;;;;;;;;;;;;18.70;59.10;101019.41;4838527;29;124068;-78
2023/08/04 03:05:29;;;;;;;;;;;;;;;18.69;59.26;101023.09;4825507;29;122811;-78
2023/08/04 03:07:56;;;;;;;;;;;;;;;18.68;59.13;101021.38;4829873;29;109309;-78
2023/08/04 03:10:22;;;;;;;;;;;;;;;18.68;59.08;101027.63;4822866;29;108671;-78
2023/08/04 03:12:49;;;;;;;;;;;;;;;18.68;59.31;101037.47;4830036;29;124589;-79
2023/08/04 03:15:16;;;;;;;;;;;;;;;18.68;59.05;101026.72;4826462;29;124096;-79
2023/08/04 03:17:43;;;;;;;;;;;;;;;18.69;59.21;101039.19;4836850;29;109502;-78
2023/08/04 03:20:10;;;;;;;;;;;;;;;18.70;59.43;101046.25;4836428;29;109209;-78
2023/08/04 03:22:37;;;;;;;;;;;;;;;18.69;59.26;101044.56;4834380;29;124629;-79
2023/08/04 03:25:06;;;;;;;;;;;;;;;18.69;59.28;101044.56;4835463;29;123384;-78
2023/08/04 03:27:33;;;;;;;;;;;;;;;18.67;59.29;101051.88;4835071;29;108435;-78
2023/08/04 03:30:00;;;;;;;;;;;;;;;18.66;59.34;101044.78;4824394;29;108620;-78
2023/08/04 03:32:27;;;;;;;;;;;;;;;18.65;59.24;101043.09;4832990;29;123025;-78
2023/08/04 03:34:54;;;;;;;;;;;;;;;18.66;59.26;101050.16;4830019;29;123706;-79
2023/08/04 03:37:21;;;;;;;;;;;;;;;18.65;59.40;101057.34;4848600;29;110110;-78
2023/08/04 03:39:47;;;;;;;;;;;;;;;18.67;59.39;101051.88;4833070;29;108728;-78
2023/08/04 03:42:14;;;;;;;;;;;;;;;18.68;59.34;101053.56;4831168;29;124323;-78
2023/08/04 03:44:41;;;;;;;;;;;;;;;18.68;59.23;101048.19;4848802;29;124377;-78
2023/08/04 03:47:08;;;;;;;;;;;;;;;18.67;59.20;101046.50;4835676;29;110362;-78
2023/08/04 03:49:35;;;;;;;;;;;;;;;18.65;59.28;101049.31;4825687;29;110119;-78
2023/08/04 03:52:02;;;;;;;;;;;;;;;18.64;59.21;101046.72;4830940;29;125193;-78
2023/08/04 03:54:29;;;;;;;;;;;;;;;18.64;59.19;101054.78;4835164;29;123222;-78
2023/08/04 03:56:56;;;;;;;;;;;;;;;18.64;59.14;101062.81;4843791;29;109642;-78
2023/08/04 03:59:23;;;;;;;;;;;;;;;18.63;59.30;101053.09;4834739;29;108893;-78
2023/08/04 04:01:50;;;;;;;;;;;;;;;18.61;59.16;101046.94;4818189;29;123133;-78
2023/08/04 04:04:17;;;;;;;;;;;;;;;18.58;59.33;101044.50;4831783;29;124367;-78
2023/08/04 04:06:44;;;;;;;;;;;;;;;18.58;59.28;101047.19;4824447;29;109440;-79
2023/08/04 04:09:11;;;;;;;;;;;;;;;18.58;59.34;101049.88;4836805;29;107646;-78
2023/08/04 04:11:38;;;;;;;;;;;;;;;18.57;59.35;101050.84;4829300;29;125349;-78
2023/08/04 04:14:05;;;;;;;;;;;;;;;18.57;59.33;101053.53;4826066;29;124175;-78
2023/08/04 04:16:32;;;;;;;;;;;;;;;18.55;59.30;101059.00;4835273;29;109130;-79
2023/08/04 04:18:59;;;;;;;;;;;;;;;18.54;59.26;101059.13;4837877;29;109184;-78
2023/08/04 04:21:26;;;;;;;;;;;;;;;18.53;59.32;101060.09;4826295;29;124127;-78
2023/08/04 04:23:53;;;;;;;;;;;;;;;18.54;59.43;101062.66;4828841;29;123432;-79
2023/08/04 04:26:19;;;;;;;;;;;;;;;18.55;59.43;101063.50;4831587;29;108142;-78
2023/08/04 04:28:46;;;;;;;;;;;;;;;18.55;59.48;101068.88;4833637;29;108793;-78
2023/08/04 04:31:13;;;;;;;;;;;;;;;18.56;59.52;101075.97;4830668;29;124173;-78
2023/08/04 04:33:40;;;;;;;;;;;;;;;18.57;59.53;101080.34;4830300;29;124083;-78
2023/08/04 04:36:07;;;;;;;;;;;;;;;18.58;59.50;101074.03;4839922;29;110790;-79
2023/08/04 04:38:34;;;;;;;;;;;;;;;18.61;59.52;101079.13;4838363;29;109914;-78
2023/08/04 04:41:01;;;;;;;;;;;;;;;18.61;59.48;101079.13;4832363;29;123280;-78
2023/08/04 04:43:29;;;;;;;;;;;;;;;18.63;59.49;101082.59;4853452;29;123212;-78
2023/08/04 04:45:56;;;;;;;;;;;;;;;18.65;59.41;101080.66;4837838;29;109473;-78
2023/08/04 04:48:23;;;;;;;;;;;;;;;18.65;59.55;101086.00;4832610;29;108095;-78
2023/08/04 04:50:51;;;;;;;;;;;;;;;18.66;59.39;101083.19;4831780;29;125128;-78
2023/08/04 04:53:18;;;;;;;;;;;;;;;18.68;59.43;101088.44;4836269;29;123932;-78
2023/08/04 04:55:45;;;;;;;;;;;;;;;18.69;59.59;101092.84;4829988;29;109398;-78
2023/08/04 04:58:12;;;;;;;;;;;;;;;18.71;59.37;101090.91;4830584;29;109630;-78
2023/08/04 05:00:40;;;;;;;;;;;;;;;18.72;59.40;101097.97;4830551;29;123210;-78
2023/08/04 05:03:08;;;;;;;;;;;;;;;18.73;59.58;101093.47;4853208;29;123785;-78
2023/08/04 05:05:36;;;;;;;;;;;;;;;18.74;59.62;101090.69;4835003;29;111012;-78
2023/08/04 05:08:02;;;;;;;;;;;;;;;18.76;59.48;101104.84;4842793;29;108490;-78
2023/08/04 05:10:30;;;;;;;;;;;;;;;18.79;59.63;101103.75;4842911;29;122623;-79
2023/08/04 05:12:57;;;;;;;;;;;;;;;18.80;59.45;101102.78;4823252;29;123744;-78
2023/08/04 05:15:24;;;;;;;;;;;;;;;18.83;59.58;101100.72;4832057;29;114251;-79
2023/08/04 05:17:51;;;;;;;;;;;;;;;18.86;59.52;101102.34;4828900;29;114344;-78
2023/08/04 05:20:18;;;;;;;;;;;;;;;18.89;59.58;101099.41;4833121;29;124124;-78
2023/08/04 05:22:45;;;;;;;;;;;;;;;18.94;59.65;101107.13;4830904;29;123133;-78
2023/08/04 05:25:12;;;;;;;;;;;;;;;18.98;59.80;101103.22;4833164;29;115655;-78
2023/08/04 05:27:39;;;;;;;;;;;;;;;19.02;59.75;101110.06;4834754;29;114975;-78
2023/08/04 05:30:07;;;;;;;;;;;;;;;19.05;59.78;101115.22;4817273;29;124081;-79
2023/08/04 05:32:34;;;;;;;;;;;;;;;19.10;59.58;101118.41;4839495;29;125331;-79
2023/08/04 05:35:01;;;;;;;;;;;;;;;19.12;59.84;101116.47;4847832;29;114582;-78
2023/08/04 05:37:28;;;;;;;;;;;;;;;19.17;59.63;101119.63;4827764;29;113581;-79
2023/08/04 05:39:54;;;;;;;;;;;;;;;19.21;59.63;101121.13;4829810;29;124127;-79
2023/08/04 05:42:21;;;;;;;;;;;;;;;19.24;59.71;101120.88;4832593;29;124055;-79
2023/08/04 05:44:48;;;;;;;;;;;;;;;19.29;59.66;101127.72;4835532;29;114083;-79
2023/08/04 05:47:15;;;;;;;;;;;;;;;19.33;59.67;101137.25;4835281;29;114302;-79
2023/08/04 05:49:42;;;;;;;;;;;;;;;19.36;59.70;101132.47;4835824;29;124599;-78
2023/08/04 05:52:09;;;;;;;;;;;;;;;19.40;59.64;101135.78;4843907;29;123328;-79
2023/08/04 05:54:36;;;;;;;;;;;;;;;19.45;59.63;101138.97;4835705;29;113873;-79
2023/08/04 05:57:03;;;;;;;;;;;;;;;19.48;59.70;101144.13;4831753;29;113406;-78
2023/08/04 05:59:30;;;;;;;;;;;;;;;19.52;59.79;101140.22;4834440;29;124324;-79
2023/08/04 06:01:57;;;;;;;;;;;;;;;19.56;59.77;101144.38;4830254;29;123519;-79
2023/08/04 06:04:24;;;;;;;;;;;;;;;19.62;59.67;101151.09;4828996;29;115599;-79
2023/08/04 06:06:50;;;;;;;;;;;;;;;19.65;59.76;101151.72;4853464;29;112907;-79
2023/08/04 06:09:17;;;;;;;;;;;;;;;19.69;59.54;101156.88;4832868;29;123655;-79
2023/08/04 06:11:44;;;;;;;;;;;;;;;19.71;59.45;101150.38;4834672;29;124574;-79
2023/08/04 06:14:13;;;;;;;;;;;;;;;19.75;59.72;101156.41;4831847;29;114387;-79
2023/08/04 06:16:40;;;;;;;;;;;;;;;19.77;59.73;101154.44;4841344;29;114463;-78
2023/08/04 06:19:07;;;;;;;;;;;;;;;19.81;59.78;101155.91;4851275;29;123454;-78
2023/08/04 06:21:35;;;;;;;;;;;;;;;19.87;59.84;101155.41;4854640;29;127022;-78
2023/08/04 06:24:03;;;;;;;;;;;;;;;19.93;59.79;101160.31;4868136;28;112585;-78
2023/08/04 06:26:30;;;;;;;;;;;;;;;19.99;59.80;101159.84;4857126;29;111946;-78
2023/08/04 06:28:57;;;;;;;;;;;;;;;20.06;59.81;101172.78;4841164;29;124912;-78
2023/08/04 06:31:25;;;;;;;;;;;;;;;20.12;59.55;101169.63;4842154;29;124138;-79
2023/08/04 06:33:52;;;;;;;;;;;;;;;20.17;59.75;101180.84;4833151;29;113155;-79
2023/08/04 06:36:19;;;;;;;;;;;;;;;20.20;59.61;101183.28;4836118;29;114061;-79
2023/08/04 06:38:46;;;;;;;;;;;;;;;20.27;59.71;101184.50;4847253;29;123642;-78
2023/08/04 06:41:13;;;;;;;;;;;;;;;20.32;59.75;101187.66;4830765;29;124084;-77
2023/08/04 06:43:39;;;;;;;;;;;;;;;20.38;59.72;101197.06;4834118;29;114519;-77
2023/08/04 06:46:07;;;;;;;;;;;;;;;20.44;59.64;101191.22;4829212;29;113757;-77
2023/08/04 06:48:34;;;;;;;;;;;;;;;20.49;59.68;101189.00;4824697;29;124296;-77
2023/08/04 06:51:01;;;;;;;;;;;;;;;20.56;59.65;101194.75;4835402;29;124062;-77
2023/08/04 06:53:27;;;;;;;;;;;;;;;20.64;59.78;101202.22;4836808;29;114789;-77
2023/08/04 06:55:54;;;;;;;;;;;;;;;20.70;59.78;101194.50;4836828;29;111924;-77
2023/08/04 06:58:21;;;;;;;;;;;;;;;20.79;59.83;101196.44;4843940;29;124312;-79
2023/08/04 07:00:48;;;;;;;;;;;;;;;20.88;59.84;101193.97;4837664;29;123437;-79
2023/08/04 07:03:15;;;;;;;;;;;;;;;20.95;59.79;101195.16;4842668;29;114965;-79
2023/08/04 07:05:43;;;;;;;;;;;;;;;21.07;59.82;101204.88;4838861;29;114442;-79
2023/08/04 07:08:09;;;;;;;;;;;;;;;21.19;59.99;101201.19;4843183;29;123753;-79
2023/08/04 07:10:36;;;;;;;;;;;;;;;21.30;59.71;101200.25;4844612;29;125785;-79
2023/08/04 07:13:03;;;;;;;;;;;;;;;21.38;59.57;101207.72;4848183;29;115699;-79
2023/08/04 07:15:31;;;;;;;;;;;;;;;21.43;59.61;101200.06;4843212;29;114320;-77
2023/08/04 07:17:58;;;;;;;;;;;;;;;21.49;59.54;101199.59;4838110;29;126058;-77
2023/08/04 07:20:25;;;;;;;;;;;;;;;21.53;59.53;101206.44;4851146;29;125921;-77
2023/08/04 07:22:52;;;;;;;;;;;;;;;21.57;59.47;101207.88;4854503;29;113796;-77
2023/08/04 07:25:19;;;;;;;;;;;;;;;21.61;59.39;101213.00;4848458;29;111992;-77
2023/08/04 07:27:46;;;;;;;;;;;;;;;21.64;59.44;101212.72;4835824;29;121960;-77
2023/08/04 07:30:13;;;;;;;;;;;;;;;21.69;59.34;101215.88;4848497;29;124751;-77
2023/08/04 07:32:40;;;;;;;;;;;;;;;21.74;59.42;101213.66;4848530;29;112596;-77
2023/08/04 07:35:07;;;;;;;;;;;;;;;21.80;59.45;101218.50;4850328;29;113327;-77
2023/08/04 07:37:34;;;;;;;;;;;;;;;21.87;59.39;101219.69;4852340;29;124473;-77
2023/08/04 07:40:01;;;;;;;;;;;;;;;21.93;59.32;101212.91;4850462;29;123381;-77
2023/08/04 07:42:29;;;;;;;;;;;;;;;21.98;59.42;101216.03;4857759;29;115293;-77
2023/08/04 07:44:57;;;;;;;;;;;;;;;22.04;59.28;101214.63;4871272;29;114926;-77
2023/08/04 07:47:24;;;;;;;;;;;;;;;22.08;59.43;101216.09;4848982;29;126472;-77
2023/08/04 07:49:50;;;;;;;;;;;;;;;22.12;59.14;101222.94;4839420;29;123937;-78
2023/08/04 07:52:17;;;;;;;;;;;;;;;22.16;59.23;101235.16;4841565;29;114648;-78
2023/08/04 07:54:44;;;;;;;;;;;;;;;22.19;59.09;101234.91;4845760;29;113785;-78
2023/08/04 07:57:11;;;;;;;;;;;;;;;22.22;59.16;101240.00;4866715;28;123632;-78
2023/08/04 07:59:38;;;;;;;;;;;;;;;22.26;59.15;101238.78;4854418;29;122159;-77
2023/08/04 08:02:05;;;;;;;;;;;;;;;22.29;59.18;101241.22;4831418;29;114357;-77
2023/08/04 08:04:32;;;;;;;;;;;;;;;22.33;59.23;101242.66;4835479;29;113575;-78
2023/08/04 08:06:59;;;;;;;;;;;;;;;22.40;59.20;101242.97;4844846;29;123206;-77
2023/08/04 08:09:26;;;;;;;;;;;;;;;22.45;59.16;101239.84;4832914;29;124111;-78
2023/08/04 08:11:53;;;;;;;;;;;;;;;22.49;59.04;101235.88;4835769;29;113947;-78
2023/08/04 08:14:21;;;;;;;;;;;;;;;22.53;59.02;101240.03;4843556;29;113326;-78
2023/08/04 08:16:48;;;;;;;;;;;;;;;22.57;59.02;101240.63;4829437;29;124184;-78
2023/08/04 08:19:15;;;;;;;;;;;;;;;22.59;59.00;101247.56;4829365;29;124163;-78
2023/08/04 08:21:45;;;;;;;;;;;;;;;22.60;59.00;101243.88;4832718;29;114400;-78
2023/08/04 08:24:13;;;;;;;;;;;;;;;22.63;59.00;101243.59;4836194;29;113905;-78
2023/08/04 08:26:39;;;;;;;;;;;;;;;22.65;58.90;101241.59;4830886;29;124448;-78
2023/08/04 08:29:07;;;;;;;;;;;;;;;22.68;58.85;101252.16;4828790;29;124790;-78
2023/08/04 08:31:34;;;;;;;;;;;;;;;22.72;58.83;101258.97;4834861;29;115270;-78
2023/08/04 08:34:01;;;;;;;;;;;;;;;22.77;59.07;101244.19;4833463;29;113463;-78
2023/08/04 08:36:28;;;;;;;;;;;;;;;22.85;59.18;101249.75;4832692;29;123443;-78
2023/08/04 08:38:54;;;;;;;;;;;;;;;22.93;58.93;101255.31;4833291;29;124362;-77
2023/08/04 08:41:22;;;;;;;;;;;;;;;22.99;59.17;101254.75;4847910;29;116208;-77
2023/08/04 08:43:49;;;;;;;;;;;;;;;23.07;59.05;101263.03;4829534;29;114811;-77
2023/08/04 08:46:16;;;;;;;;;;;;;;;23.16;58.97;101260.50;4832110;29;124190;-78
2023/08/04 08:48:47;;;;;;;;;;;;;;;23.21;58.79;101258.25;4833821;29;123618;-78
2023/08/04 08:51:20;;;;;;;;;;;;;;;23.28;58.69;101264.75;4831208;29;114402;-77
2023/08/04 08:53:47;;;;;;;;;;;;;;;23.35;58.64;101265.91;4824251;29;113420;-78
2023/08/04 08:56:15;;;;;;;;;;;;;;;23.42;58.84;101267.06;4827781;29;124004;-78
2023/08/04 08:58:42;;;;;;;;;;;;;;;23.47;58.63;101264.78;4823515;29;124745;-78
2023/08/04 09:01:09;;;;;;;;;;;;;;;23.52;58.77;101270.59;4833820;29;114499;-77
2023/08/04 09:03:36;;;;;;;;;;;;;;;23.55;58.69;101271.34;4832203;29;112860;-78
2023/08/04 09:06:04;;;;;;;;;;;;;;;23.59;58.53;101278.16;4831244;29;124337;-77
2023/08/04 09:08:31;;;;;;;;;;;;;;;23.62;58.51;101272.44;4833322;29;124292;-77
2023/08/04 09:10:58;;;;;;;;;;;;;;;23.66;58.42;101279.28;4818242;29;114640;-77
2023/08/04 09:13:28;;;;;;;;;;;;;;;23.71;58.41;101277.00;4836728;29;114615;-78
2023/08/04 09:15:58;;;;;;;;;;;;;;;23.76;58.30;101279.28;4831446;29;123644;-77
2023/08/04 09:18:25;;;;;;;;;;;;;;;23.79;58.37;101279.88;4822955;29;123927;-77
2023/08/04 09:21:08;;;;;;;;;;;;;;;23.84;58.54;101272.16;4834669;29;115402;-78
2023/08/04 09:23:35;;;;;;;;;;;;;;;23.92;58.63;101284.09;4830399;29;113652;-77
2023/08/04 09:26:02;;;;;;;;;;;;;;;24.01;58.57;101277.81;4837380;29;124247;-78
2023/08/04 09:28:29;;;;;;;;;;;;;;;24.06;58.43;101289.06;4836717;29;124034;-78
2023/08/04 09:31:03;;;;;;;;;;;;;;;24.08;58.09;101278.94;4830613;29;114956;-78
2023/08/04 09:33:31;;;;;;;;;;;;;;;24.07;58.06;101288.06;4840060;29;114213;-78
2023/08/04 09:36:01;;;;;;;;;;;;;;;24.05;57.97;101287.34;4834921;28;123110;-78
2023/08/04 09:38:28;;;;;;;;;;;;;;;24.02;57.82;101284.97;4834485;29;124595;-77
2023/08/04 09:40:59;;;;;;;;;;;;;;;23.99;57.79;101286.09;4830404;29;114780;-78
2023/08/04 09:43:26;;;;;;;;;;;;;;;23.94;57.98;101288.41;4834049;29;113435;-78
2023/08/04 09:46:03;;;;;;;;;;;;;;;23.89;57.79;101286.09;4831783;29;123992;-77
2023/08/04 09:48:30;;;;;;;;;;;;;;;23.88;57.95;101289.81;4820235;29;123087;-78
2023/08/04 09:51:11;;;;;;;;;;;;;;;23.88;58.03;101287.13;4834142;29;113765;-78
2023/08/04 09:53:44;;;;;;;;;;;;;;;23.92;58.11;101278.69;4833257;29;114648;-78
2023/08/04 09:56:12;;;;;;;;;;;;;;;23.97;57.94;101281.81;4830864;29;125227;-77
2023/08/04 09:58:40;;;;;;;;;;;;;;;24.05;58.13;101279.22;4825956;29;123907;-78
2023/08/04 10:01:07;;;;;;;;;;;;;;;24.13;58.10;101276.66;4849125;29;113839;-78
2023/08/04 10:03:36;;;;;;;;;;;;;;;24.24;58.36;101283.72;4836294;29;113949;-78
2023/08/04 10:06:03;;;;;;;;;;;;;;;24.34;58.35;101279.16;4849581;29;123942;-77
2023/08/04 10:08:31;;;;;;;;;;;;;;;24.45;58.44;101278.13;4832309;29;123900;-78
2023/08/04 10:10:59;;;;;;;;;;;;;;;24.51;57.95;101282.09;4836647;29;114292;-78
2023/08/04 10:13:27;;;;;;;;;;;;;;;24.51;57.66;101280.22;4828619;29;114390;-78
2023/08/04 10:15:55;;;;;;;;;;;;;;;24.49;57.53;101293.91;4829400;29;125013;-78
2023/08/04 10:18:23;;;;;;;;;;;;;;;24.43;57.38;101304.47;4846174;29;124308;-78
2023/08/04 10:20:53;;;;;;;;;;;;;;;24.27;57.11;101300.53;4830349;29;114328;-78
2023/08/04 10:23:20;;;;;;;;;;;;;;;24.09;57.04;101305.00;4831885;29;114814;-78
2023/08/04 10:25:54;;;;;;;;;;;;;;;23.95;56.90;101300.06;4832152;29;125397;-78
2023/08/04 10:28:21;;;;;;;;;;;;;;;23.79;56.93;101306.94;4848029;29;123384;-78
2023/08/04 10:31:01;;;;;;;;;;;;;;;23.72;57.32;101305.75;4839146;28;114439;-77
2023/08/04 10:33:28;;;;;;;;;;;;;;;23.73;57.54;101304.75;4807619;29;113450;-78
2023/08/04 10:36:06;;;;;;;;;;;;;;;23.77;57.73;101303.47;4838066;29;123105;-78
2023/08/04 10:38:44;;;;;;;;;;;;;;;23.87;58.03;101301.63;4849831;29;123363;-77
2023/08/04 10:41:11;;;;;;;;;;;;;;;23.99;57.87;101296.06;4821734;29;114634;-78
2023/08/04 10:43:38;;;;;;;;;;;;;;;24.10;57.99;101293.19;4832760;29;113788;-78
2023/08/04 10:46:10;;;;;;;;;;;;;;;24.18;57.82;101290.59;4821901;29;123106;-78
2023/08/04 10:48:40;;;;;;;;;;;;;;;24.27;57.81;101305.94;4836215;29;123738;-81
2023/08/04 10:51:08;;;;;;;;;;;;;;;24.36;57.81;101306.09;4839828;29;113861;-78
2023/08/04 10:53:35;;;;;;;;;;;;;;;24.42;57.60;101298.19;4831593;29;114315;-78
2023/08/04 10:56:05;;;;;;;;;;;;;;;24.51;57.91;101296.47;4834481;29;123885;-77
2023/08/04 10:58:32;;;;;;;;;;;;;;;24.58;57.61;101303.03;4839358;29;124934;-78
2023/08/04 11:00:59;;;;;;;;;;;;;;;24.64;57.49;101307.84;4829370;29;116158;-78
2023/08/04 11:03:27;;;;;;;;;;;;;;;24.74;57.51;101306.94;4830978;29;113558;-78
2023/08/04 11:05:54;;;;;;;;;;;;;;;24.87;57.61;101302.88;4818574;29;123844;-79
2023/08/04 11:08:22;;;;;;;;;;;;;;;25.01;57.62;101314.19;4830396;29;123892;-79
2023/08/04 11:10:50;;;;;;;;;;;;;;;25.06;57.55;101312.72;4830460;29;115557;-78
2023/08/04 11:13:21;;;;;;;;;;;;;;;25.10;57.40;101312.44;4832779;29;114417;-79
2023/08/04 11:15:49;;;;;;;;;;;;;;;25.14;56.99;101314.69;4845461;28;125033;-78
2023/08/04 11:18:20;;;;;;;;;;;;;;;25.23;57.07;101312.94;4828942;29;124034;-77
2023/08/04 11:20:47;;;;;;;;;;;;;;;25.27;57.23;101314.34;4830502;29;114075;-78
2023/08/04 11:23:22;;;;;;;;;;;;;;;25.28;57.12;101307.94;4844201;29;113849;-78
2023/08/04 11:25:49;;;;;;;;;;;;;;;25.33;56.87;101312.88;4826602;29;124352;-79
2023/08/04 11:28:18;;;;;;;;;;;;;;;25.35;57.09;101311.69;4834022;29;122404;-78
2023/08/04 11:30:45;;;;;;;;;;;;;;;25.37;56.82;101317.84;4831609;29;115255;-78
2023/08/04 11:33:13;;;;;;;;;;;;;;;25.37;56.76;101323.28;4834725;29;113331;-78
2023/08/04 11:35:40;;;;;;;;;;;;;;;25.35;56.66;101327.13;4826062;29;123435;-79
2023/08/04 11:38:07;;;;;;;;;;;;;;;25.33;56.53;101329.97;4826797;29;125535;-79
2023/08/04 11:40:34;;;;;;;;;;;;;;;25.31;56.55;101329.28;4830848;29;114994;-78
2023/08/04 11:43:01;;;;;;;;;;;;;;;25.32;56.53;101333.72;4838580;29;113596;-79
2023/08/04 11:45:32;;;;;;;;;;;;;;;25.38;56.70;101326.81;4834925;29;124327;-79
2023/08/04 11:48:00;;;;;;;;;;;;;;;25.42;56.49;101339.91;4832687;29;122992;-78
2023/08/04 11:50:27;;;;;;;;;;;;;;;25.42;56.61;101328.22;4829281;29;114507;-78
2023/08/04 11:52:54;;;;;;;;;;;;;;;25.41;56.55;101332.81;4834911;29;113750;-78
2023/08/04 11:55:21;;;;;;;;;;;;;;;25.39;56.55;101334.81;4832839;29;123894;-80
2023/08/04 11:57:51;;;;;;;;;;;;;;;25.39;56.50;101340.25;4849980;28;123667;-78
2023/08/04 12:00:33;;;;;;;;;;;;;;;25.41;56.48;101338.22;4829613;29;110422;-78
2023/08/04 12:03:01;;;;;;;;;;;;;;;25.45;56.47;101334.19;4822763;29;114437;-78
2023/08/04 12:05:37;;;;;;;;;;;;;;;25.47;56.48;101346.72;4830146;29;125502;-78
2023/08/04 12:08:11;;;;;;;;;;;;;;;25.48;56.33;101348.44;4830505;29;124614;-81
2023/08/04 12:10:39;;;;;;;;;;;;;;;25.52;56.36;101356.09;4825248;29;115253;-78
2023/08/04 12:13:06;;;;;;;;;;;;;;;25.58;56.12;101346.50;4818556;29;113316;-78
2023/08/04 12:15:52;;;;;;;;;;;;;;;25.62;56.37;101361.47;4832808;29;123350;-78
2023/08/04 12:18:23;;;;;;;;;;;;;;;25.55;55.97;101366.66;4843608;29;124675;-78
2023/08/04 12:20:50;;;;;;;;;;;;;;;25.40;55.41;101363.63;4803196;29;114404;-78
2023/08/04 12:23:17;;;;;;;;;;;;;;;25.24;55.66;101364.31;4825446;29;113765;-77
2023/08/04 12:25:44;;;;;;;;;;;;;;;25.11;55.77;101362.91;4821570;29;124082;-77
2023/08/04 12:28:11;;;;;;;;;;;;;;;24.99;55.59;101365.84;4816884;29;123463;-78
2023/08/04 12:30:38;;;;;;;;;;;;;;;24.90;55.57;101377.56;4833519;29;114231;-77